createdAt,value
2023-05-05T00:00:04.677Z,42.86
2023-05-05T00:01:04.962Z,42.54
2023-05-05T00:02:04.911Z,43.83
2023-05-05T00:03:04.748Z,49.15
2023-05-05T00:04:04.394Z,44.63
2023-05-05T00:05:04.740Z,42.38
2023-05-05T00:06:04.509Z,41.41
2023-05-05T00:07:04.369Z,48.50
2023-05-05T00:08:04.403Z,49.15
2023-05-05T00:09:04.370Z,47.37
2023-05-05T00:10:04.313Z,45.12
2023-05-05T00:11:04.323Z,40.28
2023-05-05T00:12:04.383Z,43.99
2023-05-05T00:13:04.376Z,43.83
2023-05-05T00:14:04.485Z,46.73
2023-05-05T00:15:04.286Z,40.77
2023-05-05T00:16:04.507Z,43.83
2023-05-05T00:17:04.386Z,39.96
2023-05-05T00:18:04.242Z,39.64
2023-05-05T00:19:04.230Z,39.48
2023-05-05T00:20:04.242Z,44.79
2023-05-05T00:21:04.379Z,43.34
2023-05-05T00:22:04.247Z,41.41
2023-05-05T00:23:04.444Z,41.73
2023-05-05T00:24:04.233Z,51.24
2023-05-05T00:25:04.204Z,46.25
2023-05-05T00:26:04.238Z,40.44
2023-05-05T00:27:04.212Z,46.41
2023-05-05T00:28:04.144Z,44.47
2023-05-05T00:29:04.128Z,40.12
2023-05-05T00:30:04.287Z,41.09
2023-05-05T00:31:04.228Z,43.34
2023-05-05T00:32:04.128Z,42.06
2023-05-05T00:33:04.155Z,39.48
2023-05-05T00:34:04.067Z,45.92
2023-05-05T00:35:05.339Z,44.79
2023-05-05T00:36:04.125Z,40.61
2023-05-05T00:37:04.166Z,47.37
2023-05-05T00:38:04.053Z,40.93
2023-05-05T00:39:04.099Z,41.09
2023-05-05T00:40:04.013Z,44.79
2023-05-05T00:41:04.028Z,46.57
2023-05-05T00:42:04.108Z,41.09
2023-05-05T00:43:03.994Z,46.89
2023-05-05T00:44:03.977Z,46.41
2023-05-05T00:45:04.257Z,49.47
2023-05-05T00:46:04.192Z,61.39
2023-05-05T00:47:04.023Z,46.57
2023-05-05T00:48:04.089Z,40.93
2023-05-05T00:49:03.992Z,40.28
2023-05-05T00:50:03.939Z,45.76
2023-05-05T00:51:03.911Z,40.77
2023-05-05T00:52:03.962Z,41.89
2023-05-05T00:53:04.049Z,40.28
2023-05-05T00:54:03.900Z,39.80
2023-05-05T00:55:03.914Z,42.70
2023-05-05T00:56:03.950Z,40.93
2023-05-05T00:57:03.971Z,40.44
2023-05-05T00:58:03.919Z,40.28
2023-05-05T00:59:03.854Z,42.38
2023-05-05T01:00:03.855Z,40.61
2023-05-05T01:01:03.937Z,40.28
2023-05-05T01:02:03.874Z,42.86
2023-05-05T01:03:04.294Z,39.64
2023-05-05T01:04:04.034Z,45.60
2023-05-05T01:05:04.182Z,54.62
2023-05-05T01:06:03.806Z,41.57
2023-05-05T01:07:04.183Z,40.28
2023-05-05T01:08:03.754Z,40.12
2023-05-05T01:09:03.730Z,58.17
2023-05-05T01:10:18.162Z,43.34
2023-05-05T01:11:03.743Z,40.28
2023-05-05T01:12:03.733Z,41.09
2023-05-05T01:13:03.791Z,54.30
2023-05-05T01:14:03.695Z,48.66
2023-05-05T01:15:03.683Z,41.73
2023-05-05T01:16:04.100Z,54.62
2023-05-05T01:17:03.663Z,41.25
2023-05-05T01:18:03.723Z,43.02
2023-05-05T01:19:03.709Z,40.61
2023-05-05T01:20:03.648Z,40.93
2023-05-05T01:21:03.743Z,43.67
2023-05-05T01:22:03.666Z,48.50
2023-05-05T01:23:03.600Z,40.61
2023-05-05T01:24:03.608Z,39.96
2023-05-05T01:25:03.608Z,41.09
2023-05-05T01:26:03.958Z,41.89
2023-05-05T01:27:03.588Z,41.73
2023-05-05T01:28:04.450Z,40.77
2023-05-05T01:29:03.734Z,45.92
2023-05-05T01:30:03.546Z,46.41
2023-05-05T01:31:03.669Z,57.20
2023-05-05T01:32:03.669Z,41.57
2023-05-05T01:33:03.504Z,43.18
2023-05-05T01:34:03.503Z,40.28
2023-05-05T01:35:03.499Z,58.97
2023-05-05T01:36:03.580Z,44.31
2023-05-05T01:37:03.478Z,40.93
2023-05-05T01:38:03.847Z,41.09
2023-05-05T01:39:03.436Z,44.63
2023-05-05T01:40:03.467Z,42.06
2023-05-05T01:41:03.699Z,42.86
2023-05-05T01:42:03.953Z,41.25
2023-05-05T01:43:03.448Z,43.18
2023-05-05T01:44:03.398Z,43.99
2023-05-05T01:45:03.382Z,51.56
2023-05-05T01:46:03.432Z,44.63
2023-05-05T01:47:03.395Z,41.41
2023-05-05T01:48:03.393Z,46.25
2023-05-05T01:49:03.347Z,41.73
2023-05-05T01:50:03.382Z,42.22
2023-05-05T01:51:03.361Z,42.06
2023-05-05T01:52:03.719Z,42.38
2023-05-05T01:53:03.285Z,41.57
2023-05-05T01:54:03.321Z,43.83
2023-05-05T01:55:03.395Z,44.96
2023-05-05T01:56:03.328Z,42.54
2023-05-05T01:57:03.258Z,42.54
2023-05-05T01:58:03.499Z,45.28
2023-05-05T01:59:03.249Z,41.57
2023-05-05T02:00:03.643Z,54.14
2023-05-05T02:01:03.280Z,42.70
2023-05-05T02:02:03.264Z,42.70
2023-05-05T02:03:03.251Z,41.57
2023-05-05T02:04:03.269Z,41.25
2023-05-05T02:05:03.235Z,51.08
2023-05-05T02:06:03.220Z,46.25
2023-05-05T02:07:03.156Z,43.99
2023-05-05T02:08:03.257Z,43.51
2023-05-05T02:09:03.225Z,49.63
2023-05-05T02:10:03.179Z,48.82
2023-05-05T02:11:03.862Z,42.22
2023-05-05T02:12:03.138Z,42.54
2023-05-05T02:13:03.145Z,44.47
2023-05-05T02:14:03.245Z,43.51
2023-05-05T02:15:03.114Z,57.36
2023-05-05T02:16:03.376Z,42.54
2023-05-05T02:17:03.288Z,46.41
2023-05-05T02:18:03.409Z,46.89
2023-05-05T02:19:03.131Z,46.41
2023-05-05T02:20:03.059Z,47.21
2023-05-05T02:21:03.128Z,43.34
2023-05-05T02:22:03.066Z,41.57
2023-05-05T02:23:03.008Z,41.57
2023-05-05T02:24:03.057Z,42.70
2023-05-05T02:25:03.040Z,43.34
2023-05-05T02:26:03.000Z,46.89
2023-05-05T02:27:02.980Z,46.25
2023-05-05T02:28:03.112Z,41.89
2023-05-05T02:29:03.288Z,42.38
2023-05-05T02:30:03.003Z,44.15
2023-05-05T02:31:02.994Z,47.70
2023-05-05T02:32:02.933Z,47.53
2023-05-05T02:33:02.994Z,49.95
2023-05-05T02:34:03.162Z,41.89
2023-05-05T02:35:03.912Z,41.25
2023-05-05T02:36:02.918Z,41.25
2023-05-05T02:37:02.861Z,43.51
2023-05-05T02:38:02.977Z,54.14
2023-05-05T02:39:03.062Z,41.57
2023-05-05T02:40:02.882Z,47.86
2023-05-05T02:41:02.885Z,42.54
2023-05-05T02:42:02.974Z,58.97
2023-05-05T02:43:02.817Z,55.59
2023-05-05T02:44:02.812Z,47.86
2023-05-05T02:45:02.793Z,46.89
2023-05-05T02:46:02.861Z,42.06
2023-05-05T02:47:02.803Z,47.86
2023-05-05T02:48:02.814Z,53.01
2023-05-05T02:49:02.745Z,48.02
2023-05-05T02:50:02.804Z,54.62
2023-05-05T02:51:02.828Z,48.98
2023-05-05T02:52:02.733Z,59.94
2023-05-05T02:53:02.727Z,56.07
2023-05-05T02:54:02.739Z,48.02
2023-05-05T02:55:02.678Z,50.60
2023-05-05T02:56:02.714Z,51.24
2023-05-05T02:57:02.670Z,51.56
2023-05-05T02:58:02.668Z,51.24
2023-05-05T02:59:02.691Z,46.73
2023-05-05T03:00:02.688Z,54.46
2023-05-05T03:01:02.659Z,50.76
2023-05-05T03:02:02.626Z,55.91
2023-05-05T03:03:02.707Z,47.05
2023-05-05T03:04:02.718Z,65.58
2023-05-05T03:05:02.647Z,63.97
2023-05-05T03:06:02.598Z,47.21
2023-05-05T03:07:03.463Z,49.79
2023-05-05T03:08:02.640Z,58.17
2023-05-05T03:09:02.550Z,47.05
2023-05-05T03:10:02.564Z,54.79
2023-05-05T03:11:02.606Z,48.82
2023-05-05T03:12:02.530Z,53.82
2023-05-05T03:13:02.594Z,52.69
2023-05-05T03:14:02.605Z,46.73
2023-05-05T03:15:02.519Z,51.40
2023-05-05T03:16:02.531Z,54.79
2023-05-05T03:17:02.503Z,54.79
2023-05-05T03:18:02.548Z,58.33
2023-05-05T03:19:02.440Z,55.43
2023-05-05T03:20:03.724Z,60.26
2023-05-05T03:21:02.412Z,52.69
2023-05-05T03:22:02.503Z,49.95
2023-05-05T03:23:02.405Z,56.40
2023-05-05T03:24:03.574Z,55.11
2023-05-05T03:25:02.456Z,47.53
2023-05-05T03:26:02.353Z,54.46
2023-05-05T03:27:02.357Z,51.88
2023-05-05T03:28:02.306Z,51.88
2023-05-05T03:29:02.373Z,48.18
2023-05-05T03:30:02.327Z,58.81
2023-05-05T03:31:02.337Z,59.78
2023-05-05T03:32:02.894Z,55.91
2023-05-05T03:33:02.320Z,59.78
2023-05-05T03:34:02.295Z,53.01
2023-05-05T03:35:02.233Z,53.50
2023-05-05T03:36:02.247Z,51.40
2023-05-05T03:37:02.246Z,60.42
2023-05-05T03:38:02.254Z,59.14
2023-05-05T03:39:02.228Z,60.59
2023-05-05T03:40:02.396Z,49.95
2023-05-05T03:41:02.210Z,59.30
2023-05-05T03:42:02.184Z,59.46
2023-05-05T03:43:02.853Z,55.59
2023-05-05T03:44:02.185Z,55.59
2023-05-05T03:45:02.174Z,59.14
2023-05-05T03:46:02.600Z,60.10
2023-05-05T03:47:02.984Z,58.65
2023-05-05T03:48:02.209Z,55.43
2023-05-05T03:49:02.140Z,61.71
2023-05-05T03:50:02.124Z,57.20
2023-05-05T03:51:02.213Z,56.56
2023-05-05T03:52:02.135Z,58.49
2023-05-05T03:53:02.081Z,57.69
2023-05-05T03:54:02.462Z,63.81
2023-05-05T03:55:02.080Z,53.17
2023-05-05T03:56:02.074Z,59.78
2023-05-05T03:57:02.974Z,60.10
2023-05-05T03:58:02.093Z,51.08
2023-05-05T03:59:02.051Z,59.46
2023-05-05T04:00:02.037Z,57.04
2023-05-05T04:01:02.011Z,60.91
2023-05-05T04:02:02.053Z,56.40
2023-05-05T04:03:02.050Z,58.97
2023-05-05T04:04:02.121Z,61.39
2023-05-05T04:05:01.922Z,55.91
2023-05-05T04:06:01.929Z,58.17
2023-05-05T04:07:02.050Z,68.32
2023-05-05T04:08:01.950Z,61.39
2023-05-05T04:09:01.982Z,53.33
2023-05-05T04:10:02.005Z,59.14
2023-05-05T04:11:01.928Z,63.16
2023-05-05T04:12:01.877Z,57.20
2023-05-05T04:13:01.921Z,70.74
2023-05-05T04:14:01.953Z,58.17
2023-05-05T04:15:01.882Z,57.85
2023-05-05T04:16:02.892Z,58.65
2023-05-05T04:17:01.904Z,53.66
2023-05-05T04:18:01.907Z,71.22
2023-05-05T04:19:01.805Z,59.30
2023-05-05T04:20:01.855Z,67.19
2023-05-05T04:21:01.820Z,69.77
2023-05-05T04:22:01.875Z,63.00
2023-05-05T04:23:01.778Z,60.42
2023-05-05T04:24:01.750Z,57.20
2023-05-05T04:25:01.891Z,60.91
2023-05-05T04:26:01.858Z,57.52
2023-05-05T04:27:01.699Z,73.32
2023-05-05T04:28:01.757Z,61.71
2023-05-05T04:29:01.683Z,51.88
2023-05-05T04:30:01.807Z,59.46
2023-05-05T04:31:02.124Z,66.71
2023-05-05T04:32:01.668Z,60.59
2023-05-05T04:33:01.719Z,60.10
2023-05-05T04:34:01.689Z,59.30
2023-05-05T04:35:01.661Z,65.74
2023-05-05T04:36:01.618Z,59.46
2023-05-05T04:37:01.626Z,63.33
2023-05-05T04:38:01.601Z,72.03
2023-05-05T04:39:01.632Z,69.77
2023-05-05T04:40:01.580Z,59.14
2023-05-05T04:41:01.653Z,63.00
2023-05-05T04:42:01.576Z,56.40
2023-05-05T04:43:01.550Z,58.49
2023-05-05T04:44:01.567Z,56.40
2023-05-05T04:45:01.561Z,60.75
2023-05-05T04:46:01.594Z,60.91
2023-05-05T04:47:01.533Z,56.56
2023-05-05T04:48:01.603Z,60.26
2023-05-05T04:49:01.525Z,59.46
2023-05-05T04:50:01.491Z,68.16
2023-05-05T04:51:01.478Z,61.07
2023-05-05T04:52:01.453Z,60.75
2023-05-05T04:53:01.648Z,66.06
2023-05-05T04:54:01.489Z,52.21
2023-05-05T04:55:01.441Z,58.97
2023-05-05T04:56:01.460Z,57.52
2023-05-05T04:57:01.427Z,66.39
2023-05-05T04:58:01.400Z,61.07
2023-05-05T04:59:01.399Z,61.71
2023-05-05T05:00:01.462Z,59.30
2023-05-05T05:01:02.299Z,61.39
2023-05-05T05:02:01.503Z,62.84
2023-05-05T05:03:01.444Z,59.62
2023-05-05T05:04:01.646Z,54.14
2023-05-05T05:05:01.339Z,63.00
2023-05-05T05:06:01.329Z,65.42
2023-05-05T05:07:01.317Z,66.23
2023-05-05T05:08:01.367Z,60.10
2023-05-05T05:09:02.056Z,71.54
2023-05-05T05:10:01.313Z,59.30
2023-05-05T05:11:01.876Z,57.69
2023-05-05T05:12:01.295Z,51.72
2023-05-05T05:13:01.255Z,60.91
2023-05-05T05:14:01.235Z,58.65
2023-05-05T05:15:01.282Z,61.23
2023-05-05T05:16:01.230Z,58.65
2023-05-05T05:17:01.214Z,67.84
2023-05-05T05:18:01.300Z,65.42
2023-05-05T05:19:01.846Z,57.52
2023-05-05T05:20:01.171Z,64.78
2023-05-05T05:21:01.194Z,61.07
2023-05-05T05:22:01.223Z,67.19
2023-05-05T05:23:01.423Z,58.33
2023-05-05T05:24:01.193Z,61.87
2023-05-05T05:25:01.179Z,63.33
2023-05-05T05:26:01.101Z,63.33
2023-05-05T05:27:01.188Z,63.49
2023-05-05T05:28:08.992Z,66.71
2023-05-05T05:29:01.097Z,68.00
2023-05-05T05:30:01.111Z,59.78
2023-05-05T05:31:01.097Z,64.45
2023-05-05T05:32:01.098Z,62.36
2023-05-05T05:33:01.101Z,63.49
2023-05-05T05:34:01.030Z,61.87
2023-05-05T05:35:01.011Z,68.00
2023-05-05T05:36:01.029Z,70.90
2023-05-05T05:37:01.025Z,67.68
2023-05-05T05:38:01.026Z,69.61
2023-05-05T05:39:01.264Z,68.64
2023-05-05T05:40:01.184Z,71.87
2023-05-05T05:41:00.957Z,68.32
2023-05-05T05:42:01.083Z,58.81
2023-05-05T05:43:00.972Z,65.26
2023-05-05T05:44:01.095Z,68.16
2023-05-05T05:45:00.934Z,61.07
2023-05-05T05:46:00.914Z,68.32
2023-05-05T05:47:00.958Z,59.46
2023-05-05T05:48:00.989Z,63.16
2023-05-05T05:49:00.898Z,66.23
2023-05-05T05:50:00.862Z,60.91
2023-05-05T05:51:00.876Z,68.80
2023-05-05T05:52:00.861Z,68.80
2023-05-05T05:53:00.858Z,65.42
2023-05-05T05:54:00.884Z,60.59
2023-05-05T05:55:00.961Z,68.48
2023-05-05T05:56:00.873Z,63.00
2023-05-05T05:57:00.808Z,63.97
2023-05-05T05:58:00.807Z,64.78
2023-05-05T05:59:00.769Z,60.91
2023-05-05T06:00:02.001Z,61.23
2023-05-05T06:01:00.875Z,65.90
2023-05-05T06:02:00.809Z,68.32
2023-05-05T06:03:01.060Z,66.71
2023-05-05T06:04:00.786Z,57.69
2023-05-05T06:05:00.713Z,60.10
2023-05-05T06:06:00.887Z,64.13
2023-05-05T06:07:00.785Z,68.16
2023-05-05T06:08:00.988Z,69.45
2023-05-05T06:09:00.680Z,65.90
2023-05-05T06:10:10.813Z,64.61
2023-05-05T06:11:00.709Z,65.58
2023-05-05T06:12:00.708Z,63.65
2023-05-05T06:13:00.652Z,61.23
2023-05-05T06:14:00.617Z,67.35
2023-05-05T06:15:00.688Z,59.94
2023-05-05T06:16:00.679Z,63.16
2023-05-05T06:17:00.685Z,67.03
2023-05-05T06:18:00.657Z,76.70
2023-05-05T06:19:00.643Z,65.90
2023-05-05T06:20:00.571Z,60.42
2023-05-05T06:21:00.840Z,63.00
2023-05-05T06:22:00.526Z,58.97
2023-05-05T06:23:00.602Z,63.00
2023-05-05T06:24:01.356Z,72.03
2023-05-05T06:25:00.798Z,75.89
2023-05-05T06:26:00.567Z,76.05
2023-05-05T06:27:00.714Z,72.99
2023-05-05T06:28:00.559Z,73.80
2023-05-05T06:29:00.490Z,65.42
2023-05-05T06:30:00.498Z,65.42
2023-05-05T06:31:00.488Z,70.58
2023-05-05T06:32:00.439Z,75.09
2023-05-05T06:33:00.544Z,70.58
2023-05-05T06:34:00.426Z,71.06
2023-05-05T06:35:00.500Z,63.00
2023-05-05T06:36:00.406Z,70.58
2023-05-05T06:37:00.437Z,60.26
2023-05-05T06:38:00.392Z,67.51
2023-05-05T06:39:00.413Z,61.39
2023-05-05T06:40:00.486Z,61.71
2023-05-05T06:41:00.387Z,63.65
2023-05-05T06:42:00.358Z,69.77
2023-05-05T06:43:00.350Z,67.03
2023-05-05T06:44:00.376Z,67.35
2023-05-05T06:45:00.339Z,66.55
2023-05-05T06:46:00.346Z,63.49
2023-05-05T06:47:00.464Z,61.71
2023-05-05T06:48:00.369Z,60.91
2023-05-05T06:49:00.428Z,59.30
2023-05-05T06:50:00.565Z,69.93
2023-05-05T06:51:00.389Z,59.62
2023-05-05T06:52:00.269Z,69.61
2023-05-05T06:53:00.237Z,72.03
2023-05-05T06:54:00.455Z,70.42
2023-05-05T06:55:00.563Z,67.35
2023-05-05T06:56:00.263Z,63.65
2023-05-05T06:57:00.215Z,62.68
2023-05-05T06:58:00.197Z,61.23
2023-05-05T06:59:00.299Z,59.46
2023-05-05T07:00:00.199Z,57.85
2023-05-05T07:01:00.309Z,57.85
2023-05-05T07:02:00.196Z,61.39
2023-05-05T07:03:00.289Z,62.68
2023-05-05T07:04:00.215Z,60.42
2023-05-05T07:05:00.484Z,59.94
2023-05-05T07:06:00.122Z,69.93
2023-05-05T07:07:00.137Z,62.52
2023-05-05T07:08:00.070Z,64.29
2023-05-05T07:09:00.070Z,60.10
2023-05-05T07:10:00.155Z,60.91
2023-05-05T07:11:00.126Z,58.81
2023-05-05T07:12:00.144Z,60.42
2023-05-05T07:13:00.112Z,66.06
2023-05-05T07:14:00.050Z,64.29
2023-05-05T07:15:03.167Z,61.07
2023-05-05T07:16:00.051Z,61.07
2023-05-05T07:17:00.064Z,67.19
2023-05-05T07:18:00.078Z,66.23
2023-05-05T07:18:59.997Z,60.10
2023-05-05T07:19:59.993Z,61.55
2023-05-05T07:20:59.973Z,63.49
2023-05-05T07:22:00.010Z,59.14
2023-05-05T07:22:59.972Z,68.16
2023-05-05T07:24:00.009Z,68.80
2023-05-05T07:24:59.994Z,70.09
2023-05-05T07:25:59.929Z,71.70
2023-05-05T07:26:59.974Z,72.03
2023-05-05T07:27:59.990Z,60.91
2023-05-05T07:28:59.934Z,60.42
2023-05-05T07:29:59.946Z,56.24
2023-05-05T07:30:59.901Z,65.42
2023-05-05T07:32:00.016Z,72.51
2023-05-05T07:32:59.977Z,72.35
2023-05-05T07:33:59.907Z,66.71
2023-05-05T07:34:59.874Z,57.52
2023-05-05T07:35:59.933Z,60.26
2023-05-05T07:36:59.833Z,58.33
2023-05-05T07:37:59.849Z,61.39
2023-05-05T07:39:00.067Z,64.13
2023-05-05T07:39:59.895Z,60.91
2023-05-05T07:40:59.835Z,68.80
2023-05-05T07:41:59.856Z,62.68
2023-05-05T07:42:59.984Z,59.94
2023-05-05T07:43:59.825Z,66.06
2023-05-05T07:44:59.764Z,57.85
2023-05-05T07:45:59.693Z,58.01
2023-05-05T07:46:59.877Z,60.10
2023-05-05T07:47:59.742Z,71.70
2023-05-05T07:48:59.867Z,70.90
2023-05-05T07:49:59.695Z,74.77
2023-05-05T07:50:59.710Z,69.61
2023-05-05T07:51:59.661Z,60.10
2023-05-05T07:53:10.889Z,60.59
2023-05-05T07:53:59.869Z,66.06
2023-05-05T07:54:59.754Z,60.42
2023-05-05T07:55:59.850Z,60.59
2023-05-05T07:56:59.636Z,60.42
2023-05-05T07:57:59.676Z,69.29
2023-05-05T07:58:59.685Z,64.13
2023-05-05T07:59:59.574Z,60.59
2023-05-05T08:00:59.819Z,56.88
2023-05-05T08:01:59.671Z,61.39
2023-05-05T08:03:00.470Z,69.61
2023-05-05T08:03:59.814Z,67.35
2023-05-05T08:04:59.534Z,74.60
2023-05-05T08:05:59.487Z,70.74
2023-05-05T08:06:59.663Z,68.96
2023-05-05T08:07:59.491Z,60.42
2023-05-05T08:08:59.470Z,61.87
2023-05-05T08:09:59.466Z,79.12
2023-05-05T08:10:59.500Z,64.29
2023-05-05T08:11:59.447Z,63.33
2023-05-05T08:12:59.459Z,61.55
2023-05-05T08:13:59.474Z,66.06
2023-05-05T08:14:59.423Z,68.00
2023-05-05T08:15:59.517Z,68.64
2023-05-05T08:16:59.423Z,68.00
2023-05-05T08:17:59.434Z,64.29
2023-05-05T08:18:59.407Z,68.32
2023-05-05T08:19:59.446Z,56.40
2023-05-05T08:20:59.457Z,62.04
2023-05-05T08:22:01.236Z,68.96
2023-05-05T08:22:59.355Z,67.51
2023-05-05T08:23:59.313Z,63.49
2023-05-05T08:24:59.453Z,71.87
2023-05-05T08:25:59.423Z,66.87
2023-05-05T08:26:59.392Z,68.16
2023-05-05T08:27:59.346Z,68.32
2023-05-05T08:28:59.270Z,65.90
2023-05-05T08:29:59.302Z,64.29
2023-05-05T08:30:59.462Z,58.17
2023-05-05T08:31:59.281Z,62.20
2023-05-05T08:32:59.271Z,79.92
2023-05-05T08:33:59.219Z,95.23
2023-05-05T08:34:59.223Z,71.54
2023-05-05T08:35:59.242Z,62.04
2023-05-05T08:36:59.209Z,60.59
2023-05-05T08:37:59.436Z,56.40
2023-05-05T08:38:59.235Z,59.14
2023-05-05T08:39:59.462Z,63.16
2023-05-05T08:40:59.237Z,64.61
2023-05-05T08:41:59.165Z,63.00
2023-05-05T08:42:59.134Z,66.71
2023-05-05T08:43:59.171Z,61.07
2023-05-05T08:44:59.892Z,81.37
2023-05-05T08:45:59.208Z,58.01
2023-05-05T08:46:59.180Z,61.23
2023-05-05T08:47:59.132Z,68.96
2023-05-05T08:48:59.180Z,64.45
2023-05-05T08:49:59.105Z,59.46
2023-05-05T08:51:00.804Z,58.01
2023-05-05T08:51:59.077Z,60.26
2023-05-05T08:52:59.109Z,60.59
2023-05-05T08:53:59.080Z,71.87
2023-05-05T08:54:59.083Z,61.23
2023-05-05T08:55:59.001Z,62.20
2023-05-05T08:56:59.139Z,66.23
2023-05-05T08:57:58.989Z,73.48
2023-05-05T08:58:59.068Z,69.29
2023-05-05T08:59:59.025Z,54.14
2023-05-05T09:00:59.023Z,56.24
2023-05-05T09:01:58.964Z,61.07
2023-05-05T09:02:59.135Z,72.19
2023-05-05T09:03:59.018Z,65.42
2023-05-05T09:04:59.755Z,61.23
2023-05-05T09:05:58.965Z,58.97
2023-05-05T09:06:58.884Z,61.39
2023-05-05T09:07:58.940Z,61.39
2023-05-05T09:08:59.750Z,68.32
2023-05-05T09:09:59.032Z,62.36
2023-05-05T09:10:58.871Z,59.62
2023-05-05T09:11:58.846Z,59.78
2023-05-05T09:12:58.994Z,64.29
2023-05-05T09:13:58.831Z,65.26
2023-05-05T09:14:59.460Z,63.16
2023-05-05T09:15:58.816Z,61.55
2023-05-05T09:16:58.930Z,65.10
2023-05-05T09:17:58.819Z,64.78
2023-05-05T09:18:58.773Z,63.33
2023-05-05T09:19:58.767Z,60.26
2023-05-05T09:20:59.553Z,55.27
2023-05-05T09:21:59.088Z,61.39
2023-05-05T09:22:58.827Z,68.64
2023-05-05T09:24:07.453Z,62.20
2023-05-05T09:24:58.874Z,66.71
2023-05-05T09:25:58.784Z,66.87
2023-05-05T09:26:59.174Z,60.42
2023-05-05T09:27:59.058Z,59.46
2023-05-05T09:29:00.547Z,56.88
2023-05-05T09:29:58.670Z,59.46
2023-05-05T09:30:58.824Z,70.58
2023-05-05T09:31:58.632Z,72.35
2023-05-05T09:32:58.731Z,82.34
2023-05-05T09:33:58.650Z,85.08
2023-05-05T09:34:58.612Z,67.68
2023-05-05T09:35:58.605Z,69.93
2023-05-05T09:36:58.580Z,75.57
2023-05-05T09:37:58.674Z,74.77
2023-05-05T09:38:58.898Z,71.54
2023-05-05T09:39:58.595Z,69.13
2023-05-05T09:40:58.547Z,63.81
2023-05-05T09:41:58.630Z,66.87
2023-05-05T09:42:58.887Z,71.38
2023-05-05T09:43:58.943Z,74.77
2023-05-05T09:45:00.025Z,55.27
2023-05-05T09:45:59.299Z,70.09
2023-05-05T09:46:58.641Z,60.42
2023-05-05T09:48:00.126Z,63.65
2023-05-05T09:48:58.563Z,58.97
2023-05-05T09:49:58.708Z,61.87
2023-05-05T09:50:58.728Z,67.35
2023-05-05T09:51:58.596Z,69.45
2023-05-05T09:52:58.589Z,67.51
2023-05-05T09:53:58.815Z,57.52
2023-05-05T09:54:58.523Z,62.52
2023-05-05T09:55:58.570Z,69.29
2023-05-05T09:56:58.961Z,67.84
2023-05-05T09:57:58.737Z,59.62
2023-05-05T09:58:58.801Z,58.17
2023-05-05T09:59:58.721Z,63.97
2023-05-05T10:00:58.794Z,65.10
2023-05-05T10:01:58.526Z,61.07
2023-05-05T10:02:58.619Z,98.61
2023-05-05T10:03:58.448Z,61.87
2023-05-05T10:04:59.771Z,64.45
2023-05-05T10:05:58.759Z,63.33
2023-05-05T10:06:58.456Z,63.65
2023-05-05T10:07:58.429Z,59.46
2023-05-05T10:08:58.398Z,63.81
2023-05-05T10:09:58.279Z,60.59
2023-05-05T10:10:58.405Z,69.93
2023-05-05T10:11:58.300Z,59.78
2023-05-05T10:12:58.328Z,58.97
2023-05-05T10:13:58.351Z,56.07
2023-05-05T10:14:58.207Z,66.55
2023-05-05T10:15:58.277Z,63.16
2023-05-05T10:16:58.167Z,67.03
2023-05-05T10:18:06.919Z,67.35
2023-05-05T10:18:58.162Z,58.01
2023-05-05T10:19:58.147Z,63.33
2023-05-05T10:20:58.187Z,62.04
2023-05-05T10:21:58.194Z,57.04
2023-05-05T10:22:58.103Z,67.03
2023-05-05T10:23:58.128Z,58.97
2023-05-05T10:24:58.179Z,57.52
2023-05-05T10:25:58.126Z,58.81
2023-05-05T10:26:58.128Z,67.84
2023-05-05T10:27:58.050Z,66.23
2023-05-05T10:28:58.121Z,60.75
2023-05-05T10:29:58.069Z,65.42
2023-05-05T10:30:58.142Z,60.75
2023-05-05T10:31:58.067Z,59.62
2023-05-05T10:33:09.108Z,64.94
2023-05-05T10:33:58.185Z,63.16
2023-05-05T10:34:57.994Z,63.49
2023-05-05T10:35:58.031Z,66.39
2023-05-05T10:36:58.066Z,58.17
2023-05-05T10:37:58.172Z,64.78
2023-05-05T10:38:58.004Z,59.94
2023-05-05T10:39:57.984Z,71.38
2023-05-05T10:40:57.953Z,60.42
2023-05-05T10:41:57.974Z,65.42
2023-05-05T10:42:57.953Z,70.09
2023-05-05T10:43:57.996Z,58.65
2023-05-05T10:44:57.914Z,60.10
2023-05-05T10:45:58.120Z,62.04
2023-05-05T10:46:58.074Z,60.59
2023-05-05T10:47:57.879Z,56.72
2023-05-05T10:48:58.556Z,66.06
2023-05-05T10:49:57.851Z,56.24
2023-05-05T10:50:57.957Z,57.20
2023-05-05T10:51:57.859Z,57.52
2023-05-05T10:52:57.941Z,62.84
2023-05-05T10:53:57.855Z,64.45
2023-05-05T10:54:57.885Z,68.80
2023-05-05T10:55:57.883Z,59.62
2023-05-05T10:56:57.841Z,60.10
2023-05-05T10:57:57.781Z,59.46
2023-05-05T10:59:00.132Z,60.91
2023-05-05T10:59:57.914Z,56.72
2023-05-05T11:00:57.811Z,57.20
2023-05-05T11:01:57.810Z,59.14
2023-05-05T11:02:57.866Z,60.42
2023-05-05T11:03:57.808Z,69.61
2023-05-05T11:04:57.782Z,58.33
2023-05-05T11:05:57.726Z,61.55
2023-05-05T11:06:57.709Z,64.13
2023-05-05T11:07:57.701Z,67.68
2023-05-05T11:08:57.709Z,61.87
2023-05-05T11:09:57.826Z,68.64
2023-05-05T11:10:57.719Z,61.07
2023-05-05T11:11:57.729Z,63.00
2023-05-05T11:12:57.673Z,60.10
2023-05-05T11:13:57.675Z,61.07
2023-05-05T11:14:57.678Z,57.69
2023-05-05T11:15:58.430Z,60.26
2023-05-05T11:16:57.874Z,64.13
2023-05-05T11:17:57.881Z,60.26
2023-05-05T11:18:57.610Z,59.94
2023-05-05T11:19:57.612Z,58.49
2023-05-05T11:20:57.586Z,66.87
2023-05-05T11:21:57.571Z,62.04
2023-05-05T11:22:57.595Z,52.37
2023-05-05T11:23:57.534Z,61.55
2023-05-05T11:24:57.546Z,66.55
2023-05-05T11:25:57.641Z,63.16
2023-05-05T11:26:57.534Z,58.97
2023-05-05T11:27:57.481Z,59.46
2023-05-05T11:28:57.478Z,62.52
2023-05-05T11:29:57.604Z,59.94
2023-05-05T11:30:58.241Z,61.39
2023-05-05T11:31:58.403Z,58.01
2023-05-05T11:32:57.535Z,68.00
2023-05-05T11:33:57.519Z,58.01
2023-05-05T11:34:57.453Z,61.87
2023-05-05T11:35:57.473Z,59.78
2023-05-05T11:36:57.427Z,64.61
2023-05-05T11:37:57.481Z,64.45
2023-05-05T11:38:57.439Z,73.64
2023-05-05T11:39:57.467Z,57.69
2023-05-05T11:40:57.378Z,62.84
2023-05-05T11:41:57.422Z,67.84
2023-05-05T11:42:57.455Z,59.94
2023-05-05T11:43:57.419Z,65.26
2023-05-05T11:44:57.400Z,56.56
2023-05-05T11:45:57.355Z,57.69
2023-05-05T11:46:59.298Z,63.49
2023-05-05T11:47:57.364Z,61.39
2023-05-05T11:48:57.324Z,59.78
2023-05-05T11:49:57.367Z,60.42
2023-05-05T11:50:57.258Z,58.97
2023-05-05T11:51:57.288Z,58.65
2023-05-05T11:52:57.246Z,63.49
2023-05-05T11:53:59.027Z,64.45
2023-05-05T11:54:57.244Z,61.71
2023-05-05T11:55:57.260Z,59.94
2023-05-05T11:56:57.202Z,65.10
2023-05-05T11:57:57.681Z,58.81
2023-05-05T11:58:57.975Z,65.10
2023-05-05T11:59:57.301Z,66.39
2023-05-05T12:00:57.205Z,61.23
2023-05-05T12:01:57.645Z,64.29
2023-05-05T12:02:57.204Z,59.78
2023-05-05T12:03:57.253Z,61.23
2023-05-05T12:04:57.190Z,59.30
2023-05-05T12:05:57.126Z,57.04
2023-05-05T12:06:57.119Z,63.00
2023-05-05T12:07:57.232Z,59.14
2023-05-05T12:08:57.121Z,74.60
2023-05-05T12:09:57.208Z,68.48
2023-05-05T12:10:57.157Z,63.97
2023-05-05T12:11:57.061Z,61.87
2023-05-05T12:12:57.370Z,63.97
2023-05-05T12:13:57.110Z,72.35
2023-05-05T12:14:57.045Z,60.59
2023-05-05T12:15:57.108Z,60.59
2023-05-05T12:16:57.009Z,71.70
2023-05-05T12:17:57.081Z,70.74
2023-05-05T12:18:57.027Z,57.20
2023-05-05T12:19:57.028Z,64.13
2023-05-05T12:20:56.950Z,63.49
2023-05-05T12:21:56.998Z,61.55
2023-05-05T12:22:56.988Z,65.26
2023-05-05T12:23:56.942Z,65.10
2023-05-05T12:24:56.916Z,65.74
2023-05-05T12:25:57.037Z,62.68
2023-05-05T12:26:56.886Z,58.01
2023-05-05T12:27:57.077Z,53.82
2023-05-05T12:28:56.898Z,56.56
2023-05-05T12:29:56.919Z,56.07
2023-05-05T12:30:56.946Z,58.65
2023-05-05T12:31:56.868Z,61.55
2023-05-05T12:32:56.907Z,57.36
2023-05-05T12:33:56.945Z,62.36
2023-05-05T12:34:56.856Z,59.46
2023-05-05T12:35:56.823Z,66.87
2023-05-05T12:36:56.788Z,64.45
2023-05-05T12:37:56.835Z,58.17
2023-05-05T12:38:56.820Z,60.75
2023-05-05T12:39:56.769Z,67.19
2023-05-05T12:40:56.734Z,56.24
2023-05-05T12:41:56.769Z,61.07
2023-05-05T12:42:56.723Z,58.17
2023-05-05T12:43:56.816Z,58.17
2023-05-05T12:44:56.703Z,57.20
2023-05-05T12:45:56.791Z,68.16
2023-05-05T12:46:56.729Z,62.04
2023-05-05T12:47:56.727Z,63.16
2023-05-05T12:48:56.663Z,61.87
2023-05-05T12:49:56.698Z,66.87
2023-05-05T12:50:56.708Z,64.29
2023-05-05T12:51:56.711Z,59.14